sensor_id;sensor_type;location;lat;lon;timestamp;P1;durP1;ratioP1;P2;durP2;ratioP2
15968;SDS011;8085;53.472;9.794;2022-08-19T00:02:18;3.30;;;2.10;;
15968;SDS011;8085;53.472;9.794;2022-08-19T00:04:46;2.80;;;2.03;;
15968;SDS011;8085;53.472;9.794;2022-08-19T00:07:17;2.93;;;2.10;;
15968;SDS011;8085;53.472;9.794;2022-08-19T00:09:44;2.47;;;2.00;;
15968;SDS011;8085;53.472;9.794;2022-08-19T00:12:11;3.00;;;2.20;;
15968;SDS011;8085;53.472;9.794;2022-08-19T00:14:39;3.13;;;2.05;;
15968;SDS011;8085;53.472;9.794;2022-08-19T00:17:06;2.60;;;1.90;;
15968;SDS011;8085;53.472;9.794;2022-08-19T00:19:33;3.93;;;2.30;;
15968;SDS011;8085;53.472;9.794;2022-08-19T00:22:02;3.10;;;2.17;;
15968;SDS011;8085;53.472;9.794;2022-08-19T00:24:30;4.37;;;2.70;;
15968;SDS011;8085;53.472;9.794;2022-08-19T00:26:57;2.37;;;1.87;;
15968;SDS011;8085;53.472;9.794;2022-08-19T00:29:26;2.33;;;1.80;;
15968;SDS011;8085;53.472;9.794;2022-08-19T00:31:54;5.63;;;2.53;;
15968;SDS011;8085;53.472;9.794;2022-08-19T00:34:23;2.90;;;1.90;;
15968;SDS011;8085;53.472;9.794;2022-08-19T00:36:53;5.30;;;2.27;;
15968;SDS011;8085;53.472;9.794;2022-08-19T00:39:21;3.53;;;2.33;;
15968;SDS011;8085;53.472;9.794;2022-08-19T00:41:49;3.33;;;2.13;;
15968;SDS011;8085;53.472;9.794;2022-08-19T00:44:18;2.63;;;2.20;;
15968;SDS011;8085;53.472;9.794;2022-08-19T00:46:48;3.03;;;2.20;;
15968;SDS011;8085;53.472;9.794;2022-08-19T00:49:17;4.53;;;2.13;;
15968;SDS011;8085;53.472;9.794;2022-08-19T00:51:47;3.63;;;2.10;;
15968;SDS011;8085;53.472;9.794;2022-08-19T00:54:17;3.40;;;2.43;;
15968;SDS011;8085;53.472;9.794;2022-08-19T00:56:47;4.67;;;2.07;;
15968;SDS011;8085;53.472;9.794;2022-08-19T00:59:15;6.57;;;2.50;;
15968;SDS011;8085;53.472;9.794;2022-08-19T01:01:44;4.20;;;2.43;;
15968;SDS011;8085;53.472;9.794;2022-08-19T01:04:12;2.70;;;2.20;;
15968;SDS011;8085;53.472;9.794;2022-08-19T01:06:39;4.33;;;2.57;;
15968;SDS011;8085;53.472;9.794;2022-08-19T01:09:07;5.70;;;2.60;;
15968;SDS011;8085;53.472;9.794;2022-08-19T01:11:35;3.77;;;2.10;;
15968;SDS011;8085;53.472;9.794;2022-08-19T01:14:07;3.07;;;2.13;;
15968;SDS011;8085;53.472;9.794;2022-08-19T01:16:36;3.70;;;2.20;;
15968;SDS011;8085;53.472;9.794;2022-08-19T01:19:06;3.93;;;2.10;;
15968;SDS011;8085;53.472;9.794;2022-08-19T01:21:42;3.85;;;2.00;;
15968;SDS011;8085;53.472;9.794;2022-08-19T01:24:15;4.45;;;1.80;;
15968;SDS011;8085;53.472;9.794;2022-08-19T01:26:42;4.32;;;2.60;;
15968;SDS011;8085;53.472;9.794;2022-08-19T01:29:11;5.73;;;1.80;;
15968;SDS011;8085;53.472;9.794;2022-08-19T01:31:39;3.20;;;2.17;;
15968;SDS011;8085;53.472;9.794;2022-08-19T01:34:06;3.03;;;2.50;;
15968;SDS011;8085;53.472;9.794;2022-08-19T01:36:34;4.53;;;2.20;;
15968;SDS011;8085;53.472;9.794;2022-08-19T01:39:04;3.77;;;2.50;;
15968;SDS011;8085;53.472;9.794;2022-08-19T01:41:35;5.17;;;2.20;;
15968;SDS011;8085;53.472;9.794;2022-08-19T01:44:02;5.47;;;2.30;;
15968;SDS011;8085;53.472;9.794;2022-08-19T01:46:31;4.47;;;2.28;;
15968;SDS011;8085;53.472;9.794;2022-08-19T01:48:58;6.70;;;2.20;;
15968;SDS011;8085;53.472;9.794;2022-08-19T01:51:25;4.43;;;2.20;;
15968;SDS011;8085;53.472;9.794;2022-08-19T01:53:52;3.70;;;2.40;;
15968;SDS011;8085;53.472;9.794;2022-08-19T01:56:19;3.70;;;2.53;;
15968;SDS011;8085;53.472;9.794;2022-08-19T01:58:49;3.33;;;2.50;;
15968;SDS011;8085;53.472;9.794;2022-08-19T02:01:19;3.23;;;2.13;;
15968;SDS011;8085;53.472;9.794;2022-08-19T02:03:46;4.90;;;2.30;;
15968;SDS011;8085;53.472;9.794;2022-08-19T02:06:13;4.83;;;2.60;;
15968;SDS011;8085;53.472;9.794;2022-08-19T02:08:42;3.65;;;2.38;;
15968;SDS011;8085;53.472;9.794;2022-08-19T02:11:17;4.23;;;2.67;;
15968;SDS011;8085;53.472;9.794;2022-08-19T02:13:45;4.40;;;2.50;;
15968;SDS011;8085;53.472;9.794;2022-08-19T02:16:15;5.60;;;2.50;;
15968;SDS011;8085;53.472;9.794;2022-08-19T02:18:42;3.40;;;2.80;;
15968;SDS011;8085;53.472;9.794;2022-08-19T02:21:09;4.00;;;2.90;;
15968;SDS011;8085;53.472;9.794;2022-08-19T02:23:36;6.50;;;3.20;;
15968;SDS011;8085;53.472;9.794;2022-08-19T02:26:03;8.60;;;3.30;;
15968;SDS011;8085;53.472;9.794;2022-08-19T02:28:30;6.50;;;3.13;;
15968;SDS011;8085;53.472;9.794;2022-08-19T02:30:59;6.73;;;3.27;;
15968;SDS011;8085;53.472;9.794;2022-08-19T02:33:27;5.97;;;3.42;;
15968;SDS011;8085;53.472;9.794;2022-08-19T02:35:54;8.20;;;3.13;;
15968;SDS011;8085;53.472;9.794;2022-08-19T02:38:21;4.63;;;3.03;;
15968;SDS011;8085;53.472;9.794;2022-08-19T02:40:50;4.37;;;3.17;;
15968;SDS011;8085;53.472;9.794;2022-08-19T02:43:19;4.37;;;2.93;;
15968;SDS011;8085;53.472;9.794;2022-08-19T02:45:47;5.93;;;3.07;;
15968;SDS011;8085;53.472;9.794;2022-08-19T02:48:16;4.33;;;3.10;;
15968;SDS011;8085;53.472;9.794;2022-08-19T02:50:44;5.00;;;3.40;;
15968;SDS011;8085;53.472;9.794;2022-08-19T02:53:12;3.87;;;2.70;;
15968;SDS011;8085;53.472;9.794;2022-08-19T02:55:42;5.23;;;3.00;;
15968;SDS011;8085;53.472;9.794;2022-08-19T02:58:10;4.37;;;3.03;;
15968;SDS011;8085;53.472;9.794;2022-08-19T03:00:41;4.40;;;3.00;;
15968;SDS011;8085;53.472;9.794;2022-08-19T03:03:12;6.60;;;3.10;;
15968;SDS011;8085;53.472;9.794;2022-08-19T03:05:41;5.25;;;3.20;;
15968;SDS011;8085;53.472;9.794;2022-08-19T03:08:08;7.80;;;4.13;;
15968;SDS011;8085;53.472;9.794;2022-08-19T03:10:41;4.90;;;3.53;;
15968;SDS011;8085;53.472;9.794;2022-08-19T03:13:10;5.87;;;3.37;;
15968;SDS011;8085;53.472;9.794;2022-08-19T03:15:41;6.23;;;3.60;;
15968;SDS011;8085;53.472;9.794;2022-08-19T03:18:08;5.30;;;3.33;;
15968;SDS011;8085;53.472;9.794;2022-08-19T03:20:41;7.67;;;3.70;;
15968;SDS011;8085;53.472;9.794;2022-08-19T03:23:08;4.63;;;3.47;;
15968;SDS011;8085;53.472;9.794;2022-08-19T03:25:39;6.57;;;3.73;;
15968;SDS011;8085;53.472;9.794;2022-08-19T03:28:08;6.57;;;3.53;;
15968;SDS011;8085;53.472;9.794;2022-08-19T03:30:37;5.07;;;3.70;;
15968;SDS011;8085;53.472;9.794;2022-08-19T03:33:05;10.20;;;4.80;;
15968;SDS011;8085;53.472;9.794;2022-08-19T03:35:32;9.43;;;5.63;;
15968;SDS011;8085;53.472;9.794;2022-08-19T03:38:03;13.47;;;5.00;;
15968;SDS011;8085;53.472;9.794;2022-08-19T03:40:31;7.83;;;3.77;;
15968;SDS011;8085;53.472;9.794;2022-08-19T03:43:00;11.27;;;4.17;;
15968;SDS011;8085;53.472;9.794;2022-08-19T03:45:27;7.70;;;3.93;;
15968;SDS011;8085;53.472;9.794;2022-08-19T03:47:53;8.23;;;3.57;;
15968;SDS011;8085;53.472;9.794;2022-08-19T03:50:21;10.23;;;3.37;;
15968;SDS011;8085;53.472;9.794;2022-08-19T03:52:49;7.23;;;2.93;;
15968;SDS011;8085;53.472;9.794;2022-08-19T03:55:18;6.70;;;3.20;;
15968;SDS011;8085;53.472;9.794;2022-08-19T03:57:45;7.13;;;4.00;;
15968;SDS011;8085;53.472;9.794;2022-08-19T04:00:13;7.20;;;3.90;;
15968;SDS011;8085;53.472;9.794;2022-08-19T04:02:41;10.47;;;4.00;;
15968;SDS011;8085;53.472;9.794;2022-08-19T04:05:08;8.10;;;4.67;;
15968;SDS011;8085;53.472;9.794;2022-08-19T04:07:35;8.53;;;3.70;;
15968;SDS011;8085;53.472;9.794;2022-08-19T04:10:02;6.30;;;3.80;;
15968;SDS011;8085;53.472;9.794;2022-08-19T04:12:31;5.35;;;3.03;;
15968;SDS011;8085;53.472;9.794;2022-08-19T04:14:58;6.83;;;3.67;;
15968;SDS011;8085;53.472;9.794;2022-08-19T04:17:25;5.53;;;3.43;;
15968;SDS011;8085;53.472;9.794;2022-08-19T04:19:52;7.97;;;3.53;;
15968;SDS011;8085;53.472;9.794;2022-08-19T04:22:19;7.13;;;3.13;;
15968;SDS011;8085;53.472;9.794;2022-08-19T04:24:46;6.17;;;3.10;;
15968;SDS011;8085;53.472;9.794;2022-08-19T04:27:12;6.30;;;3.53;;
15968;SDS011;8085;53.472;9.794;2022-08-19T04:29:42;7.30;;;4.03;;
15968;SDS011;8085;53.472;9.794;2022-08-19T04:32:09;6.70;;;3.07;;
15968;SDS011;8085;53.472;9.794;2022-08-19T04:34:36;13.93;;;3.87;;
15968;SDS011;8085;53.472;9.794;2022-08-19T04:37:05;6.17;;;3.20;;
15968;SDS011;8085;53.472;9.794;2022-08-19T04:39:37;7.80;;;3.20;;
15968;SDS011;8085;53.472;9.794;2022-08-19T04:42:21;6.30;;;3.23;;
15968;SDS011;8085;53.472;9.794;2022-08-19T04:45:09;6.63;;;2.83;;
15968;SDS011;8085;53.472;9.794;2022-08-19T04:47:38;6.17;;;2.87;;
15968;SDS011;8085;53.472;9.794;2022-08-19T04:50:06;6.80;;;3.07;;
15968;SDS011;8085;53.472;9.794;2022-08-19T04:52:34;5.53;;;3.20;;
15968;SDS011;8085;53.472;9.794;2022-08-19T04:55:02;7.33;;;2.93;;
15968;SDS011;8085;53.472;9.794;2022-08-19T04:57:31;4.67;;;2.67;;
15968;SDS011;8085;53.472;9.794;2022-08-19T04:59:58;4.80;;;2.97;;
15968;SDS011;8085;53.472;9.794;2022-08-19T05:02:26;5.07;;;2.60;;
15968;SDS011;8085;53.472;9.794;2022-08-19T05:04:56;5.60;;;2.83;;
15968;SDS011;8085;53.472;9.794;2022-08-19T05:07:25;4.00;;;2.53;;
15968;SDS011;8085;53.472;9.794;2022-08-19T05:09:52;3.77;;;2.87;;
15968;SDS011;8085;53.472;9.794;2022-08-19T05:12:20;4.20;;;2.47;;
15968;SDS011;8085;53.472;9.794;2022-08-19T05:14:47;5.57;;;3.30;;
15968;SDS011;8085;53.472;9.794;2022-08-19T05:17:14;4.63;;;2.80;;
15968;SDS011;8085;53.472;9.794;2022-08-19T05:19:43;4.70;;;2.50;;
15968;SDS011;8085;53.472;9.794;2022-08-19T05:22:27;7.53;;;4.60;;
15968;SDS011;8085;53.472;9.794;2022-08-19T05:25:02;9.33;;;4.60;;
15968;SDS011;8085;53.472;9.794;2022-08-19T05:27:31;6.87;;;4.20;;
15968;SDS011;8085;53.472;9.794;2022-08-19T05:29:58;8.60;;;4.57;;
15968;SDS011;8085;53.472;9.794;2022-08-19T05:32:26;8.97;;;4.63;;
15968;SDS011;8085;53.472;9.794;2022-08-19T05:34:54;7.37;;;4.77;;
15968;SDS011;8085;53.472;9.794;2022-08-19T05:37:21;9.40;;;5.10;;
15968;SDS011;8085;53.472;9.794;2022-08-19T05:39:51;10.13;;;4.57;;
15968;SDS011;8085;53.472;9.794;2022-08-19T05:42:19;7.37;;;4.70;;
15968;SDS011;8085;53.472;9.794;2022-08-19T05:44:47;7.73;;;4.83;;
15968;SDS011;8085;53.472;9.794;2022-08-19T05:47:14;5.67;;;4.67;;
15968;SDS011;8085;53.472;9.794;2022-08-19T05:49:43;9.83;;;4.97;;
15968;SDS011;8085;53.472;9.794;2022-08-19T05:52:12;12.20;;;6.53;;
15968;SDS011;8085;53.472;9.794;2022-08-19T05:54:42;14.33;;;6.37;;
15968;SDS011;8085;53.472;9.794;2022-08-19T05:57:12;13.07;;;6.50;;
15968;SDS011;8085;53.472;9.794;2022-08-19T05:59:40;15.63;;;6.93;;
15968;SDS011;8085;53.472;9.794;2022-08-19T06:02:06;12.67;;;6.97;;
15968;SDS011;8085;53.472;9.794;2022-08-19T06:04:33;12.27;;;6.77;;
15968;SDS011;8085;53.472;9.794;2022-08-19T06:07:00;11.60;;;6.60;;
15968;SDS011;8085;53.472;9.794;2022-08-19T06:09:29;10.80;;;7.03;;
15968;SDS011;8085;53.472;9.794;2022-08-19T06:11:56;12.23;;;6.60;;
15968;SDS011;8085;53.472;9.794;2022-08-19T06:14:26;14.07;;;7.37;;
15968;SDS011;8085;53.472;9.794;2022-08-19T06:16:54;7.97;;;7.00;;
15968;SDS011;8085;53.472;9.794;2022-08-19T06:19:21;11.90;;;6.20;;
15968;SDS011;8085;53.472;9.794;2022-08-19T06:21:50;9.70;;;6.57;;
15968;SDS011;8085;53.472;9.794;2022-08-19T06:24:19;13.97;;;6.03;;
15968;SDS011;8085;53.472;9.794;2022-08-19T06:26:50;13.43;;;6.07;;
15968;SDS011;8085;53.472;9.794;2022-08-19T06:29:18;10.33;;;5.10;;
15968;SDS011;8085;53.472;9.794;2022-08-19T06:31:48;9.93;;;6.30;;
15968;SDS011;8085;53.472;9.794;2022-08-19T06:34:16;13.80;;;6.70;;
15968;SDS011;8085;53.472;9.794;2022-08-19T06:36:44;10.73;;;6.20;;
15968;SDS011;8085;53.472;9.794;2022-08-19T06:39:13;9.23;;;5.90;;
15968;SDS011;8085;53.472;9.794;2022-08-19T06:41:42;9.97;;;6.30;;
15968;SDS011;8085;53.472;9.794;2022-08-19T06:44:14;12.77;;;5.90;;
15968;SDS011;8085;53.472;9.794;2022-08-19T06:46:41;7.87;;;5.40;;
15968;SDS011;8085;53.472;9.794;2022-08-19T06:49:08;8.27;;;5.77;;
15968;SDS011;8085;53.472;9.794;2022-08-19T06:51:38;10.60;;;5.70;;
15968;SDS011;8085;53.472;9.794;2022-08-19T06:54:06;12.50;;;5.70;;
15968;SDS011;8085;53.472;9.794;2022-08-19T06:56:34;6.53;;;5.07;;
15968;SDS011;8085;53.472;9.794;2022-08-19T06:59:02;9.30;;;5.40;;
15968;SDS011;8085;53.472;9.794;2022-08-19T07:01:31;7.97;;;5.20;;
15968;SDS011;8085;53.472;9.794;2022-08-19T07:04:03;7.17;;;5.13;;
15968;SDS011;8085;53.472;9.794;2022-08-19T07:06:30;6.23;;;4.70;;
15968;SDS011;8085;53.472;9.794;2022-08-19T07:08:58;8.27;;;5.13;;
15968;SDS011;8085;53.472;9.794;2022-08-19T07:11:25;8.60;;;4.97;;
15968;SDS011;8085;53.472;9.794;2022-08-19T07:13:52;7.23;;;4.47;;
15968;SDS011;8085;53.472;9.794;2022-08-19T07:16:19;5.50;;;4.43;;
15968;SDS011;8085;53.472;9.794;2022-08-19T07:18:48;6.40;;;4.83;;
15968;SDS011;8085;53.472;9.794;2022-08-19T07:21:18;8.77;;;4.40;;
15968;SDS011;8085;53.472;9.794;2022-08-19T07:23:47;9.90;;;5.07;;
15968;SDS011;8085;53.472;9.794;2022-08-19T07:26:15;6.33;;;4.70;;
15968;SDS011;8085;53.472;9.794;2022-08-19T07:28:45;6.97;;;4.50;;
15968;SDS011;8085;53.472;9.794;2022-08-19T07:31:15;9.03;;;5.13;;
15968;SDS011;8085;53.472;9.794;2022-08-19T07:33:44;6.93;;;3.50;;
15968;SDS011;8085;53.472;9.794;2022-08-19T07:36:14;6.50;;;2.77;;
15968;SDS011;8085;53.472;9.794;2022-08-19T07:38:44;5.80;;;2.47;;
15968;SDS011;8085;53.472;9.794;2022-08-19T07:41:14;4.20;;;2.67;;
15968;SDS011;8085;53.472;9.794;2022-08-19T07:43:43;6.17;;;2.80;;
15968;SDS011;8085;53.472;9.794;2022-08-19T07:46:11;6.10;;;2.83;;
15968;SDS011;8085;53.472;9.794;2022-08-19T07:48:39;5.67;;;3.60;;
15968;SDS011;8085;53.472;9.794;2022-08-19T07:51:08;5.63;;;3.80;;
15968;SDS011;8085;53.472;9.794;2022-08-19T07:53:37;7.43;;;3.60;;
15968;SDS011;8085;53.472;9.794;2022-08-19T07:56:04;5.37;;;3.30;;
15968;SDS011;8085;53.472;9.794;2022-08-19T07:58:33;8.93;;;4.00;;
15968;SDS011;8085;53.472;9.794;2022-08-19T08:01:03;7.07;;;3.90;;
15968;SDS011;8085;53.472;9.794;2022-08-19T08:03:31;6.30;;;4.03;;
15968;SDS011;8085;53.472;9.794;2022-08-19T08:06:16;8.70;;;4.00;;
15968;SDS011;8085;53.472;9.794;2022-08-19T08:09:03;6.00;;;3.90;;
15968;SDS011;8085;53.472;9.794;2022-08-19T08:11:36;10.17;;;4.43;;
15968;SDS011;8085;53.472;9.794;2022-08-19T08:14:04;8.20;;;4.17;;
15968;SDS011;8085;53.472;9.794;2022-08-19T08:16:33;8.80;;;4.40;;
15968;SDS011;8085;53.472;9.794;2022-08-19T08:19:02;9.30;;;4.30;;
15968;SDS011;8085;53.472;9.794;2022-08-19T08:21:30;9.77;;;4.83;;
15968;SDS011;8085;53.472;9.794;2022-08-19T08:23:57;6.47;;;4.40;;
15968;SDS011;8085;53.472;9.794;2022-08-19T08:26:25;9.63;;;4.53;;
15968;SDS011;8085;53.472;9.794;2022-08-19T08:28:53;7.67;;;4.20;;
15968;SDS011;8085;53.472;9.794;2022-08-19T08:31:20;8.33;;;4.23;;
15968;SDS011;8085;53.472;9.794;2022-08-19T08:33:47;6.00;;;4.63;;
15968;SDS011;8085;53.472;9.794;2022-08-19T08:36:14;6.20;;;4.30;;
15968;SDS011;8085;53.472;9.794;2022-08-19T08:38:42;7.60;;;4.50;;
15968;SDS011;8085;53.472;9.794;2022-08-19T08:41:12;8.40;;;4.40;;
15968;SDS011;8085;53.472;9.794;2022-08-19T08:43:48;6.33;;;3.50;;
15968;SDS011;8085;53.472;9.794;2022-08-19T08:46:19;7.87;;;3.80;;
15968;SDS011;8085;53.472;9.794;2022-08-19T08:48:52;6.77;;;4.17;;
15968;SDS011;8085;53.472;9.794;2022-08-19T08:51:26;7.17;;;3.93;;
15968;SDS011;8085;53.472;9.794;2022-08-19T08:53:55;6.23;;;3.77;;
15968;SDS011;8085;53.472;9.794;2022-08-19T08:56:23;7.23;;;3.63;;
15968;SDS011;8085;53.472;9.794;2022-08-19T08:58:54;7.20;;;4.30;;
15968;SDS011;8085;53.472;9.794;2022-08-19T09:01:24;6.50;;;4.63;;
15968;SDS011;8085;53.472;9.794;2022-08-19T09:03:52;8.27;;;4.63;;
15968;SDS011;8085;53.472;9.794;2022-08-19T09:06:21;8.43;;;4.20;;
15968;SDS011;8085;53.472;9.794;2022-08-19T09:08:57;6.87;;;4.50;;
15968;SDS011;8085;53.472;9.794;2022-08-19T09:11:33;8.40;;;4.20;;
15968;SDS011;8085;53.472;9.794;2022-08-19T09:14:17;6.73;;;4.53;;
15968;SDS011;8085;53.472;9.794;2022-08-19T09:16:53;7.13;;;4.50;;
15968;SDS011;8085;53.472;9.794;2022-08-19T09:19:20;8.37;;;4.93;;
15968;SDS011;8085;53.472;9.794;2022-08-19T09:21:47;7.37;;;4.80;;
15968;SDS011;8085;53.472;9.794;2022-08-19T09:24:15;6.87;;;4.33;;
15968;SDS011;8085;53.472;9.794;2022-08-19T09:26:42;8.73;;;4.83;;
15968;SDS011;8085;53.472;9.794;2022-08-19T09:29:10;8.53;;;5.10;;
15968;SDS011;8085;53.472;9.794;2022-08-19T09:31:38;5.17;;;4.10;;
15968;SDS011;8085;53.472;9.794;2022-08-19T09:34:05;9.60;;;6.50;;
15968;SDS011;8085;53.472;9.794;2022-08-19T09:36:33;9.93;;;7.00;;
15968;SDS011;8085;53.472;9.794;2022-08-19T09:39:01;10.40;;;7.07;;
15968;SDS011;8085;53.472;9.794;2022-08-19T09:41:29;11.00;;;7.97;;
15968;SDS011;8085;53.472;9.794;2022-08-19T09:43:57;12.70;;;7.40;;
15968;SDS011;8085;53.472;9.794;2022-08-19T09:46:25;12.83;;;8.13;;
15968;SDS011;8085;53.472;9.794;2022-08-19T09:48:58;12.17;;;7.57;;
15968;SDS011;8085;53.472;9.794;2022-08-19T09:51:26;12.70;;;7.87;;
15968;SDS011;8085;53.472;9.794;2022-08-19T09:53:54;13.27;;;8.47;;
15968;SDS011;8085;53.472;9.794;2022-08-19T09:56:25;9.93;;;8.10;;
15968;SDS011;8085;53.472;9.794;2022-08-19T09:58:52;12.23;;;8.50;;
15968;SDS011;8085;53.472;9.794;2022-08-19T10:01:20;12.90;;;6.97;;
15968;SDS011;8085;53.472;9.794;2022-08-19T10:03:49;14.33;;;8.93;;
15968;SDS011;8085;53.472;9.794;2022-08-19T10:06:19;14.53;;;9.30;;
15968;SDS011;8085;53.472;9.794;2022-08-19T10:08:47;15.03;;;8.53;;
15968;SDS011;8085;53.472;9.794;2022-08-19T10:11:15;14.03;;;8.50;;
15968;SDS011;8085;53.472;9.794;2022-08-19T10:13:42;14.17;;;9.40;;
15968;SDS011;8085;53.472;9.794;2022-08-19T10:16:11;14.97;;;9.20;;
15968;SDS011;8085;53.472;9.794;2022-08-19T10:18:40;10.90;;;7.53;;
15968;SDS011;8085;53.472;9.794;2022-08-19T10:21:09;11.30;;;6.10;;
15968;SDS011;8085;53.472;9.794;2022-08-19T10:23:41;10.57;;;6.10;;
15968;SDS011;8085;53.472;9.794;2022-08-19T10:26:11;9.23;;;5.80;;
15968;SDS011;8085;53.472;9.794;2022-08-19T10:28:39;6.57;;;4.83;;
15968;SDS011;8085;53.472;9.794;2022-08-19T10:31:07;9.93;;;5.13;;
15968;SDS011;8085;53.472;9.794;2022-08-19T10:33:37;10.40;;;5.73;;
15968;SDS011;8085;53.472;9.794;2022-08-19T10:36:05;9.30;;;5.23;;
15968;SDS011;8085;53.472;9.794;2022-08-19T10:38:34;9.30;;;5.23;;
15968;SDS011;8085;53.472;9.794;2022-08-19T10:41:09;9.20;;;6.07;;
15968;SDS011;8085;53.472;9.794;2022-08-19T10:43:38;10.87;;;6.50;;
15968;SDS011;8085;53.472;9.794;2022-08-19T10:46:05;8.10;;;5.73;;
15968;SDS011;8085;53.472;9.794;2022-08-19T10:48:32;11.50;;;6.33;;
15968;SDS011;8085;53.472;9.794;2022-08-19T10:51:00;7.93;;;6.23;;
15968;SDS011;8085;53.472;9.794;2022-08-19T10:53:44;7.83;;;5.13;;
15968;SDS011;8085;53.472;9.794;2022-08-19T10:56:13;7.37;;;6.10;;
15968;SDS011;8085;53.472;9.794;2022-08-19T10:58:57;8.50;;;6.10;;
15968;SDS011;8085;53.472;9.794;2022-08-19T11:01:24;8.20;;;5.60;;
15968;SDS011;8085;53.472;9.794;2022-08-19T11:03:51;6.77;;;5.03;;
15968;SDS011;8085;53.472;9.794;2022-08-19T11:06:19;6.93;;;4.30;;
15968;SDS011;8085;53.472;9.794;2022-08-19T11:08:46;6.77;;;4.77;;
15968;SDS011;8085;53.472;9.794;2022-08-19T11:11:14;6.17;;;4.60;;
15968;SDS011;8085;53.472;9.794;2022-08-19T11:13:42;6.87;;;5.23;;
15968;SDS011;8085;53.472;9.794;2022-08-19T11:16:13;9.03;;;5.50;;
15968;SDS011;8085;53.472;9.794;2022-08-19T11:18:43;8.13;;;4.90;;
15968;SDS011;8085;53.472;9.794;2022-08-19T11:21:12;9.53;;;6.20;;
15968;SDS011;8085;53.472;9.794;2022-08-19T11:23:42;7.03;;;4.70;;
15968;SDS011;8085;53.472;9.794;2022-08-19T11:26:10;10.70;;;5.70;;
15968;SDS011;8085;53.472;9.794;2022-08-19T11:28:38;11.33;;;6.10;;
15968;SDS011;8085;53.472;9.794;2022-08-19T11:31:09;8.73;;;4.80;;
15968;SDS011;8085;53.472;9.794;2022-08-19T11:33:37;7.83;;;4.20;;
15968;SDS011;8085;53.472;9.794;2022-08-19T11:36:04;11.13;;;4.70;;
15968;SDS011;8085;53.472;9.794;2022-08-19T11:38:31;6.20;;;4.73;;
15968;SDS011;8085;53.472;9.794;2022-08-19T11:40:59;5.27;;;4.30;;
15968;SDS011;8085;53.472;9.794;2022-08-19T11:43:28;6.60;;;4.13;;
15968;SDS011;8085;53.472;9.794;2022-08-19T11:45:57;6.50;;;3.90;;
15968;SDS011;8085;53.472;9.794;2022-08-19T11:48:24;5.97;;;3.90;;
15968;SDS011;8085;53.472;9.794;2022-08-19T11:50:52;6.00;;;4.10;;
15968;SDS011;8085;53.472;9.794;2022-08-19T11:53:21;8.20;;;4.07;;
15968;SDS011;8085;53.472;9.794;2022-08-19T11:55:49;6.17;;;4.00;;
15968;SDS011;8085;53.472;9.794;2022-08-19T11:58:21;8.03;;;4.00;;
15968;SDS011;8085;53.472;9.794;2022-08-19T12:00:48;6.77;;;3.93;;
15968;SDS011;8085;53.472;9.794;2022-08-19T12:03:16;5.60;;;3.83;;
15968;SDS011;8085;53.472;9.794;2022-08-19T12:05:43;5.57;;;3.90;;
15968;SDS011;8085;53.472;9.794;2022-08-19T12:08:10;4.73;;;3.90;;
15968;SDS011;8085;53.472;9.794;2022-08-19T12:10:38;5.17;;;3.97;;
15968;SDS011;8085;53.472;9.794;2022-08-19T12:13:06;6.97;;;4.13;;
15968;SDS011;8085;53.472;9.794;2022-08-19T12:15:34;6.13;;;4.43;;
15968;SDS011;8085;53.472;9.794;2022-08-19T12:18:02;4.83;;;3.80;;
15968;SDS011;8085;53.472;9.794;2022-08-19T12:20:32;4.13;;;3.50;;
15968;SDS011;8085;53.472;9.794;2022-08-19T12:23:01;4.93;;;3.57;;
15968;SDS011;8085;53.472;9.794;2022-08-19T12:25:28;4.63;;;4.07;;
15968;SDS011;8085;53.472;9.794;2022-08-19T12:27:55;10.17;;;8.83;;
15968;SDS011;8085;53.472;9.794;2022-08-19T12:30:23;11.63;;;9.93;;
15968;SDS011;8085;53.472;9.794;2022-08-19T12:32:50;11.70;;;9.80;;
15968;SDS011;8085;53.472;9.794;2022-08-19T12:35:17;13.60;;;11.20;;
15968;SDS011;8085;53.472;9.794;2022-08-19T12:37:46;12.60;;;9.77;;
15968;SDS011;8085;53.472;9.794;2022-08-19T12:40:14;11.87;;;9.27;;
15968;SDS011;8085;53.472;9.794;2022-08-19T12:42:43;12.43;;;9.70;;
15968;SDS011;8085;53.472;9.794;2022-08-19T12:45:11;14.57;;;10.20;;
15968;SDS011;8085;53.472;9.794;2022-08-19T12:47:39;12.23;;;10.57;;
15968;SDS011;8085;53.472;9.794;2022-08-19T12:50:06;12.27;;;10.20;;
15968;SDS011;8085;53.472;9.794;2022-08-19T12:52:34;9.93;;;8.77;;
15968;SDS011;8085;53.472;9.794;2022-08-19T12:55:04;10.47;;;8.00;;
15968;SDS011;8085;53.472;9.794;2022-08-19T12:57:32;10.47;;;9.13;;
15968;SDS011;8085;53.472;9.794;2022-08-19T13:00:02;10.33;;;8.23;;
15968;SDS011;8085;53.472;9.794;2022-08-19T13:02:33;12.97;;;9.40;;
15968;SDS011;8085;53.472;9.794;2022-08-19T13:05:01;10.90;;;9.47;;
15968;SDS011;8085;53.472;9.794;2022-08-19T13:07:28;10.10;;;8.47;;
15968;SDS011;8085;53.472;9.794;2022-08-19T13:09:57;10.43;;;7.57;;
15968;SDS011;8085;53.472;9.794;2022-08-19T13:12:25;13.60;;;9.57;;
15968;SDS011;8085;53.472;9.794;2022-08-19T13:14:52;11.70;;;7.97;;
15968;SDS011;8085;53.472;9.794;2022-08-19T13:17:19;10.07;;;8.77;;
15968;SDS011;8085;53.472;9.794;2022-08-19T13:19:46;9.13;;;7.73;;
15968;SDS011;8085;53.472;9.794;2022-08-19T13:22:13;11.63;;;8.37;;
15968;SDS011;8085;53.472;9.794;2022-08-19T13:24:40;9.53;;;7.67;;
15968;SDS011;8085;53.472;9.794;2022-08-19T13:27:08;9.03;;;7.80;;
15968;SDS011;8085;53.472;9.794;2022-08-19T13:29:36;8.57;;;6.90;;
15968;SDS011;8085;53.472;9.794;2022-08-19T13:32:20;11.13;;;8.40;;
15968;SDS011;8085;53.472;9.794;2022-08-19T13:35:05;8.50;;;7.30;;
15968;SDS011;8085;53.472;9.794;2022-08-19T13:37:32;9.07;;;6.70;;
15968;SDS011;8085;53.472;9.794;2022-08-19T13:40:08;9.87;;;7.40;;
15968;SDS011;8085;53.472;9.794;2022-08-19T13:42:37;11.27;;;7.93;;
15968;SDS011;8085;53.472;9.794;2022-08-19T13:45:06;8.93;;;7.90;;
15968;SDS011;8085;53.472;9.794;2022-08-19T13:47:34;11.30;;;8.33;;
15968;SDS011;8085;53.472;9.794;2022-08-19T13:50:02;11.60;;;8.70;;
15968;SDS011;8085;53.472;9.794;2022-08-19T13:52:30;7.18;;;6.20;;
15968;SDS011;8085;53.472;9.794;2022-08-19T13:54:56;11.17;;;8.67;;
15968;SDS011;8085;53.472;9.794;2022-08-19T13:57:23;10.67;;;6.67;;
15968;SDS011;8085;53.472;9.794;2022-08-19T13:59:50;8.10;;;6.83;;
15968;SDS011;8085;53.472;9.794;2022-08-19T14:02:18;10.60;;;8.43;;
15968;SDS011;8085;53.472;9.794;2022-08-19T14:04:45;10.53;;;7.53;;
15968;SDS011;8085;53.472;9.794;2022-08-19T14:07:12;6.80;;;6.10;;
15968;SDS011;8085;53.472;9.794;2022-08-19T14:09:39;8.30;;;6.33;;
15968;SDS011;8085;53.472;9.794;2022-08-19T14:12:06;8.73;;;7.70;;
15968;SDS011;8085;53.472;9.794;2022-08-19T14:14:35;6.37;;;5.77;;
15968;SDS011;8085;53.472;9.794;2022-08-19T14:17:05;6.80;;;5.87;;
15968;SDS011;8085;53.472;9.794;2022-08-19T14:19:34;6.65;;;5.18;;
15968;SDS011;8085;53.472;9.794;2022-08-19T14:22:01;6.87;;;6.13;;
15968;SDS011;8085;53.472;9.794;2022-08-19T14:24:28;7.47;;;6.57;;
15968;SDS011;8085;53.472;9.794;2022-08-19T14:26:55;5.73;;;5.13;;
15968;SDS011;8085;53.472;9.794;2022-08-19T14:29:24;7.40;;;6.10;;
15968;SDS011;8085;53.472;9.794;2022-08-19T14:31:52;8.47;;;6.10;;
15968;SDS011;8085;53.472;9.794;2022-08-19T14:34:19;8.20;;;6.75;;
15968;SDS011;8085;53.472;9.794;2022-08-19T14:36:48;7.70;;;5.83;;
15968;SDS011;8085;53.472;9.794;2022-08-19T14:39:15;7.13;;;5.97;;
15968;SDS011;8085;53.472;9.794;2022-08-19T14:41:42;6.40;;;5.77;;
15968;SDS011;8085;53.472;9.794;2022-08-19T14:44:10;7.15;;;6.45;;
15968;SDS011;8085;53.472;9.794;2022-08-19T14:46:37;6.90;;;6.00;;
15968;SDS011;8085;53.472;9.794;2022-08-19T14:49:05;6.20;;;5.60;;
15968;SDS011;8085;53.472;9.794;2022-08-19T14:51:32;6.18;;;5.57;;
15968;SDS011;8085;53.472;9.794;2022-08-19T14:54:00;7.80;;;5.97;;
15968;SDS011;8085;53.472;9.794;2022-08-19T14:56:28;7.35;;;6.28;;
15968;SDS011;8085;53.472;9.794;2022-08-19T14:58:56;7.03;;;6.30;;
15968;SDS011;8085;53.472;9.794;2022-08-19T15:01:25;6.75;;;5.47;;
15968;SDS011;8085;53.472;9.794;2022-08-19T15:03:53;7.18;;;6.38;;
15968;SDS011;8085;53.472;9.794;2022-08-19T15:06:20;8.23;;;6.38;;
15968;SDS011;8085;53.472;9.794;2022-08-19T15:08:48;7.72;;;6.47;;